Portada
METAR-TAF:

METAR-TAF

Aeroports :

Derby, Austràlia

latitud: 17-34-53S, longitud: 123-49-42E, altitud: 91 m

Observació

L'informe es va fer fa 43 minuts, a les 21:00 UTC
Vent 6 kt del Oest/Sud-Oest
Temperatura 22°C
Humitat 88%
Pressió 1009 hPa
Visibilitat 10 km o més

METAR: YCIN 192100Z AUTO 24006KT 9999 // NCD 22/20 Q1009

Hora: 05:43 (21:43 UTC)

Pronòstic

L'informe es va fer fa 3 hores i 9 minuts, a les 18:34 UTC
Pronòstic vàlid del 19 a les 20 UTC al 20 a les 08 UTC
Vent 8 kt del Oest/Sud-Oest
Visibilitat 10 km o més
sense núvols per sota de 1500 mi sense presència de cumulonimbus.
A partir de les 20 a les 0600 UTC
Vent 10 kt del Nord-Oest
Visibilitat 10 km o més
sense núvols per sota de 1500 mi sense presència de cumulonimbus.

TAF: YCIN 191834Z 1920/2008 24008KT CAVOK FM200600 32010KT CAVOK

Observacions i pronòstics meteorològics de més de 4000 aeroports (METAR i TAF).

Les estacions disponibles són els punts grocs i vermells al mapa.

Posi el ratolí al punt desitjat per veure el nom de l'estació.

Feu clic per veure les observacions i els pronòstics meteorològics.

Per canviar el mapa: feu clic els botons verds amb una creu de color negre per apropar; al botó verd amb un guió per allunyar la imatge; o en les fletxes verdes per a mapes adjacents.


METAR-TAF: